createdAt,value
2023-04-26T00:00:51.219Z,5.72
2023-04-26T00:03:17.840Z,5.60
2023-04-26T00:05:44.440Z,5.53
2023-04-26T00:08:10.811Z,5.46
2023-04-26T00:10:37.264Z,5.43
2023-04-26T00:13:03.808Z,5.18
2023-04-26T00:15:30.411Z,4.93
2023-04-26T00:17:57.121Z,5.42
2023-04-26T00:20:23.593Z,5.59
2023-04-26T00:22:50.012Z,5.51
2023-04-26T00:25:16.441Z,5.61
2023-04-26T00:27:42.880Z,5.54
2023-04-26T00:30:09.436Z,5.67
2023-04-26T00:32:36.330Z,5.71
2023-04-26T00:35:06.368Z,5.68
2023-04-26T00:37:32.803Z,5.43
2023-04-26T00:39:59.278Z,4.92
2023-04-26T00:42:27.166Z,4.92
2023-04-26T00:44:57.325Z,5.20
2023-04-26T00:47:29.570Z,5.21
2023-04-26T00:49:57.060Z,5.06
2023-04-26T00:52:24.039Z,5.01
2023-04-26T00:54:51.352Z,5.05
2023-04-26T00:57:17.760Z,4.48
2023-04-26T00:59:44.341Z,4.70
2023-04-26T01:02:10.966Z,4.52
2023-04-26T01:04:37.727Z,4.71
2023-04-26T01:07:04.142Z,4.60
2023-04-26T01:09:31.857Z,4.50
2023-04-26T01:11:58.617Z,4.67
2023-04-26T01:14:25.183Z,4.51
2023-04-26T01:16:52.425Z,4.66
2023-04-26T01:19:18.978Z,4.65
2023-04-26T01:24:14.108Z,4.51
2023-04-26T01:26:45.576Z,4.51
2023-04-26T01:29:21.977Z,4.49
2023-04-26T01:31:48.850Z,4.20
2023-04-26T01:34:15.900Z,4.39
2023-04-26T01:36:42.732Z,4.21
2023-04-26T01:39:09.498Z,4.13
2023-04-26T01:41:35.897Z,4.18
2023-04-26T01:44:02.402Z,4.07
2023-04-26T01:46:28.857Z,3.89
2023-04-26T01:48:55.446Z,3.85
2023-04-26T01:51:21.858Z,3.76
2023-04-26T01:53:48.297Z,3.83
2023-04-26T01:56:14.631Z,3.76
2023-04-26T01:58:41.171Z,3.75
2023-04-26T02:01:09.225Z,3.87
2023-04-26T02:03:36.036Z,3.68
2023-04-26T02:06:02.718Z,3.76
2023-04-26T02:08:29.930Z,3.73
2023-04-26T02:10:56.354Z,3.63
2023-04-26T02:13:22.852Z,3.72
2023-04-26T02:15:49.948Z,3.83
2023-04-26T02:18:17.610Z,3.88
2023-04-26T02:20:44.925Z,3.90
2023-04-26T02:23:11.702Z,3.79
2023-04-26T02:25:39.436Z,3.95
2023-04-26T02:28:06.310Z,4.06
2023-04-26T02:30:32.748Z,3.87
2023-04-26T02:32:59.290Z,4.00
2023-04-26T02:35:25.804Z,4.02
2023-04-26T02:37:52.439Z,3.99
2023-04-26T02:40:19.106Z,3.99
2023-04-26T02:42:45.541Z,3.99
2023-04-26T02:45:12.128Z,3.96
2023-04-26T02:47:38.837Z,3.92
2023-04-26T02:50:06.547Z,3.92
2023-04-26T02:52:33.203Z,3.93
2023-04-26T02:54:59.622Z,3.80
2023-04-26T02:57:26.015Z,3.64
2023-04-26T02:59:52.482Z,3.64
2023-04-26T03:02:19.166Z,3.52
2023-04-26T03:04:46.629Z,3.34
2023-04-26T03:07:13.311Z,3.19
2023-04-26T03:09:39.810Z,2.97
2023-04-26T03:12:09.538Z,3.09
2023-04-26T03:14:36.425Z,3.27
2023-04-26T03:17:03.020Z,3.11
2023-04-26T03:19:29.578Z,2.97
2023-04-26T03:21:56.760Z,3.21
2023-04-26T03:24:24.102Z,2.96
2023-04-26T03:26:51.568Z,2.81
2023-04-26T03:29:18.154Z,2.85
2023-04-26T03:31:44.589Z,3.04
2023-04-26T03:34:11.596Z,2.93
2023-04-26T03:36:38.485Z,2.86
2023-04-26T03:39:06.183Z,2.62
2023-04-26T03:41:36.941Z,2.78
2023-04-26T03:44:03.512Z,2.57
2023-04-26T03:46:29.941Z,2.71
2023-04-26T03:48:57.474Z,2.59
2023-04-26T03:51:23.860Z,2.46
2023-04-26T03:53:51.089Z,2.59
2023-04-26T03:56:17.473Z,2.54
2023-04-26T03:58:43.858Z,2.71
2023-04-26T04:01:10.304Z,2.57
2023-04-26T04:03:38.608Z,2.71
2023-04-26T04:06:07.302Z,2.39
2023-04-26T04:08:35.027Z,2.35
2023-04-26T04:11:02.427Z,2.55
2023-04-26T04:13:28.924Z,2.41
2023-04-26T04:15:55.354Z,2.43
2023-04-26T04:18:21.783Z,2.39
2023-04-26T04:20:48.226Z,2.32
2023-04-26T04:23:14.667Z,2.20
2023-04-26T04:25:41.215Z,2.25
2023-04-26T04:28:08.590Z,2.01
2023-04-26T04:30:35.683Z,2.21
2023-04-26T04:33:02.672Z,2.14
2023-04-26T04:35:33.424Z,2.13
2023-04-26T04:38:01.686Z,2.16
2023-04-26T04:40:28.105Z,2.39
2023-04-26T04:42:55.616Z,2.36
2023-04-26T04:45:22.165Z,2.29
2023-04-26T04:47:48.707Z,2.46
2023-04-26T04:50:15.236Z,2.41
2023-04-26T04:52:42.557Z,2.51
2023-04-26T04:55:16.692Z,2.73
2023-04-26T04:57:43.346Z,2.82
2023-04-26T05:00:10.394Z,2.86
2023-04-26T05:02:37.330Z,3.08
2023-04-26T05:05:04.984Z,4.28
2023-04-26T05:07:32.381Z,5.20
2023-04-26T05:09:58.919Z,6.28
2023-04-26T05:12:25.634Z,6.34
2023-04-26T05:14:52.127Z,6.77
2023-04-26T05:17:18.593Z,6.79
2023-04-26T05:19:45.569Z,7.35
2023-04-26T05:22:18.020Z,8.12
2023-04-26T05:24:47.665Z,7.74
2023-04-26T05:27:14.610Z,8.58
2023-04-26T05:29:41.547Z,9.65
2023-04-26T05:32:08.092Z,10.04
2023-04-26T05:34:34.611Z,10.46
2023-04-26T05:37:01.174Z,10.76
2023-04-26T05:39:27.536Z,11.02
2023-04-26T05:41:54.317Z,11.39
2023-04-26T05:44:20.799Z,11.81
2023-04-26T05:46:47.533Z,11.75
2023-04-26T05:49:26.382Z,10.80
2023-04-26T05:51:52.776Z,9.59
2023-04-26T05:54:19.156Z,10.57
2023-04-26T05:56:46.392Z,11.88
2023-04-26T05:59:13.655Z,11.88
2023-04-26T06:01:40.058Z,12.44
2023-04-26T06:04:06.964Z,12.20
2023-04-26T06:06:33.981Z,12.59
2023-04-26T06:09:00.494Z,12.78
2023-04-26T06:11:27.428Z,12.85
2023-04-26T06:14:03.013Z,12.65
2023-04-26T06:16:29.600Z,12.45
2023-04-26T06:18:56.045Z,12.16
2023-04-26T06:21:22.454Z,12.15
2023-04-26T06:23:48.863Z,12.73
2023-04-26T06:26:15.360Z,12.66
2023-04-26T06:28:42.366Z,12.19
2023-04-26T06:31:08.910Z,13.26
2023-04-26T06:33:35.427Z,13.24
2023-04-26T06:36:01.822Z,12.54
2023-04-26T06:38:29.003Z,12.72
2023-04-26T06:40:55.388Z,13.13
2023-04-26T06:43:22.812Z,12.46
2023-04-26T06:45:49.191Z,12.50
2023-04-26T06:48:15.573Z,13.13
2023-04-26T06:50:42.276Z,13.67
2023-04-26T06:53:08.688Z,13.37
2023-04-26T06:55:35.168Z,13.53
2023-04-26T06:58:01.544Z,13.78
2023-04-26T07:00:28.523Z,13.15
2023-04-26T07:02:54.992Z,13.56
2023-04-26T07:05:21.800Z,13.81
2023-04-26T07:07:48.534Z,14.15
2023-04-26T07:10:14.921Z,13.98
2023-04-26T07:12:41.327Z,14.02
2023-04-26T07:15:08.317Z,13.88
2023-04-26T07:17:34.785Z,13.74
2023-04-26T07:20:01.254Z,14.35
2023-04-26T07:22:27.789Z,14.60
2023-04-26T07:24:54.242Z,14.56
2023-04-26T07:27:20.707Z,13.19
2023-04-26T07:29:48.158Z,13.78
2023-04-26T07:32:15.000Z,14.07
2023-04-26T07:34:41.987Z,13.87
2023-04-26T07:37:08.340Z,14.62
2023-04-26T07:39:35.288Z,14.24
2023-04-26T07:42:01.705Z,15.46
2023-04-26T07:44:28.153Z,15.68
2023-04-26T07:46:54.670Z,14.92
2023-04-26T07:49:21.021Z,15.25
2023-04-26T07:51:48.986Z,15.04
2023-04-26T07:54:15.410Z,13.86
2023-04-26T07:56:41.835Z,12.75
2023-04-26T07:59:08.509Z,13.27
2023-04-26T08:01:34.901Z,14.53
2023-04-26T08:04:01.766Z,12.54
2023-04-26T08:06:29.384Z,14.13
2023-04-26T08:08:55.830Z,12.66
2023-04-26T08:11:22.340Z,12.00
2023-04-26T08:13:48.892Z,13.28
2023-04-26T08:16:15.521Z,13.81
2023-04-26T08:18:43.976Z,14.28
2023-04-26T08:21:12.056Z,12.88
2023-04-26T08:23:38.462Z,12.85
2023-04-26T08:26:04.876Z,12.54
2023-04-26T08:28:31.540Z,13.44
2023-04-26T08:30:58.295Z,14.45
2023-04-26T08:33:25.008Z,14.41
2023-04-26T08:35:51.593Z,14.49
2023-04-26T08:38:19.137Z,12.91
2023-04-26T08:40:46.773Z,12.76
2023-04-26T08:43:14.698Z,11.96
2023-04-26T08:45:41.621Z,11.26
2023-04-26T08:48:11.826Z,12.05
2023-04-26T08:50:38.789Z,11.90
2023-04-26T08:53:05.986Z,11.46
2023-04-26T08:55:33.603Z,11.37
2023-04-26T08:58:00.846Z,11.39
2023-04-26T09:00:27.428Z,11.23
2023-04-26T09:02:54.068Z,11.24
2023-04-26T09:05:24.799Z,11.25
2023-04-26T09:07:53.557Z,11.71
2023-04-26T09:10:23.812Z,12.21
2023-04-26T09:12:51.539Z,12.58
2023-04-26T09:15:18.261Z,12.50
2023-04-26T09:17:45.995Z,12.48
2023-04-26T09:20:18.549Z,12.60
2023-04-26T09:22:45.780Z,12.36
2023-04-26T09:25:13.558Z,11.88
2023-04-26T09:27:41.369Z,11.78
2023-04-26T09:30:09.638Z,11.55
2023-04-26T09:32:45.419Z,11.48
2023-04-26T09:35:36.513Z,11.23
2023-04-26T09:38:12.289Z,11.24
2023-04-26T09:40:43.106Z,11.33
2023-04-26T09:43:14.305Z,11.96
2023-04-26T09:46:07.163Z,11.74
2023-04-26T09:48:35.633Z,11.79
2023-04-26T09:51:04.866Z,11.69
2023-04-26T09:53:34.301Z,11.94
2023-04-26T09:56:10.625Z,11.65
2023-04-26T09:58:58.669Z,11.13
2023-04-26T10:01:25.832Z,11.08
2023-04-26T10:03:52.800Z,11.10
2023-04-26T10:06:19.827Z,11.24
2023-04-26T10:08:46.257Z,10.94
2023-04-26T10:11:12.938Z,11.87
2023-04-26T10:13:40.068Z,12.98
2023-04-26T10:16:28.350Z,13.84
2023-04-26T10:18:55.037Z,13.70
2023-04-26T10:21:26.683Z,12.86
2023-04-26T10:23:53.482Z,12.43
2023-04-26T10:26:53.080Z,12.02
2023-04-26T10:29:25.762Z,12.05
2023-04-26T10:32:04.554Z,11.76
2023-04-26T10:34:31.824Z,11.29
2023-04-26T10:37:08.862Z,11.76
2023-04-26T10:39:36.641Z,12.53
2023-04-26T10:42:26.060Z,12.29
2023-04-26T10:44:53.986Z,13.09
2023-04-26T10:47:26.087Z,13.42
2023-04-26T10:49:52.633Z,14.04
2023-04-26T10:52:23.275Z,13.64
2023-04-26T10:54:51.063Z,14.01
2023-04-26T10:57:18.024Z,13.57
2023-04-26T11:00:13.814Z,13.65
2023-04-26T11:02:48.314Z,12.83
2023-04-26T11:05:44.158Z,12.34
2023-04-26T11:08:18.033Z,12.57
2023-04-26T11:10:46.582Z,12.95
2023-04-26T11:13:13.032Z,12.43
2023-04-26T11:15:39.480Z,12.09
2023-04-26T11:18:06.128Z,11.84
2023-04-26T11:20:33.267Z,12.07
2023-04-26T11:22:59.938Z,12.54
2023-04-26T11:25:28.349Z,12.67
2023-04-26T11:28:02.015Z,12.41
2023-04-26T11:30:32.196Z,12.63
2023-04-26T11:32:59.348Z,12.76
2023-04-26T11:35:26.302Z,12.97
2023-04-26T11:37:52.781Z,13.39
2023-04-26T11:40:19.355Z,13.35
2023-04-26T11:42:46.012Z,13.55
2023-04-26T11:45:12.590Z,13.52
2023-04-26T11:47:39.490Z,13.59
2023-04-26T11:50:06.769Z,13.21
2023-04-26T11:52:33.335Z,13.61
2023-04-26T11:55:04.386Z,13.80
2023-04-26T11:57:32.434Z,13.55
2023-04-26T12:00:14.861Z,13.48
2023-04-26T12:02:48.076Z,13.80
2023-04-26T12:05:21.387Z,14.14
2023-04-26T12:07:52.656Z,14.31
2023-04-26T12:10:20.547Z,14.08
2023-04-26T12:12:54.705Z,14.59
2023-04-26T12:15:25.638Z,14.20
2023-04-26T12:18:06.474Z,13.80
2023-04-26T12:20:35.406Z,13.53
2023-04-26T12:23:08.303Z,13.55
2023-04-26T12:25:35.711Z,13.35
2023-04-26T12:28:03.715Z,13.39
2023-04-26T12:30:30.378Z,13.46
2023-04-26T12:33:05.692Z,13.50
2023-04-26T12:35:41.912Z,13.30
2023-04-26T12:38:08.343Z,13.24
2023-04-26T12:40:34.738Z,13.26
2023-04-26T12:43:01.139Z,13.26
2023-04-26T12:45:29.560Z,13.15
2023-04-26T12:47:56.516Z,12.98
2023-04-26T12:50:22.983Z,13.38
2023-04-26T12:52:49.397Z,13.46
2023-04-26T12:55:16.099Z,13.55
2023-04-26T12:57:43.628Z,13.64
2023-04-26T13:00:11.709Z,13.04
2023-04-26T13:02:38.492Z,13.25
2023-04-26T13:05:06.617Z,13.43
2023-04-26T13:07:37.304Z,13.88
2023-04-26T13:10:04.464Z,13.93
2023-04-26T13:12:31.477Z,13.70
2023-04-26T13:14:58.870Z,13.29
2023-04-26T13:17:26.520Z,13.82
2023-04-26T13:19:53.412Z,13.94
2023-04-26T13:22:20.262Z,13.67
2023-04-26T13:24:46.717Z,13.56
2023-04-26T13:27:13.465Z,13.98
2023-04-26T13:29:40.759Z,13.83
2023-04-26T13:32:08.288Z,13.67
2023-04-26T13:34:35.080Z,14.30
2023-04-26T13:37:03.849Z,14.67
2023-04-26T13:39:30.944Z,14.81
2023-04-26T13:41:58.810Z,13.93
2023-04-26T13:44:28.534Z,13.29
2023-04-26T13:46:56.299Z,13.34
2023-04-26T13:49:23.088Z,13.18
2023-04-26T13:51:49.537Z,12.81
2023-04-26T13:54:17.380Z,13.21
2023-04-26T13:56:43.817Z,13.22
2023-04-26T13:59:10.288Z,13.23
2023-04-26T14:01:56.859Z,13.60
2023-04-26T14:04:24.902Z,13.72
2023-04-26T14:06:52.522Z,13.70
2023-04-26T14:09:18.934Z,13.90
2023-04-26T14:11:47.539Z,13.41
2023-04-26T14:14:20.488Z,14.00
2023-04-26T14:16:47.018Z,14.11
2023-04-26T14:19:15.420Z,13.99
2023-04-26T14:21:42.092Z,13.97
2023-04-26T14:24:08.607Z,14.23
2023-04-26T14:26:35.263Z,14.07
2023-04-26T14:29:02.189Z,13.84
2023-04-26T14:31:30.446Z,13.62
2023-04-26T14:33:56.894Z,13.65
2023-04-26T14:36:23.348Z,13.42
2023-04-26T14:38:49.684Z,13.67
2023-04-26T14:41:16.786Z,13.42
2023-04-26T14:43:43.696Z,13.23
2023-04-26T14:46:10.152Z,13.67
2023-04-26T14:48:37.572Z,14.15
2023-04-26T14:51:04.062Z,14.18
2023-04-26T14:53:30.456Z,13.96
2023-04-26T14:56:00.660Z,13.25
2023-04-26T14:58:27.374Z,13.30
2023-04-26T15:00:54.008Z,13.16
2023-04-26T15:03:21.056Z,13.44
2023-04-26T15:05:47.570Z,13.63
2023-04-26T15:08:14.553Z,13.83
2023-04-26T15:10:40.955Z,13.92
2023-04-26T15:13:07.352Z,13.89
2023-04-26T15:15:34.137Z,14.12
2023-04-26T15:18:00.902Z,13.96
2023-04-26T15:20:27.514Z,13.77
2023-04-26T15:22:53.946Z,13.81
2023-04-26T15:25:20.329Z,13.84
2023-04-26T15:27:47.033Z,14.06
2023-04-26T15:30:17.280Z,13.68
2023-04-26T15:32:47.126Z,13.49
2023-04-26T15:35:15.190Z,13.53
2023-04-26T15:37:41.973Z,13.45
2023-04-26T15:40:11.133Z,13.29
2023-04-26T15:42:37.578Z,13.33
2023-04-26T15:45:04.125Z,13.10
2023-04-26T15:47:30.620Z,12.84
2023-04-26T15:50:01.880Z,13.02
2023-04-26T15:52:29.374Z,13.13
2023-04-26T15:54:55.776Z,13.01
2023-04-26T15:57:22.282Z,13.20
2023-04-26T15:59:48.971Z,13.13
2023-04-26T16:02:15.405Z,13.18
2023-04-26T16:04:43.170Z,13.18
2023-04-26T16:07:09.616Z,13.48
2023-04-26T16:09:36.627Z,13.60
2023-04-26T16:12:03.667Z,13.60
2023-04-26T16:14:31.371Z,13.46
2023-04-26T16:17:00.749Z,13.41
2023-04-26T16:19:27.297Z,13.43
2023-04-26T16:21:54.097Z,13.19
2023-04-26T16:24:20.437Z,12.86
2023-04-26T16:26:47.066Z,13.13
2023-04-26T16:29:13.946Z,12.90
2023-04-26T16:31:41.405Z,13.00
2023-04-26T16:34:07.952Z,12.85
2023-04-26T16:36:35.510Z,12.82
2023-04-26T16:39:01.969Z,12.59
2023-04-26T16:41:28.349Z,12.52
2023-04-26T16:43:56.106Z,12.50
2023-04-26T16:46:23.456Z,12.42
2023-04-26T16:48:55.536Z,12.32
2023-04-26T16:51:24.574Z,12.14
2023-04-26T16:53:50.987Z,11.91
2023-04-26T16:56:17.474Z,11.95
2023-04-26T16:58:43.948Z,11.90
2023-04-26T17:01:10.907Z,11.94
2023-04-26T17:03:37.545Z,11.89
2023-04-26T17:06:06.615Z,11.86
2023-04-26T17:08:33.006Z,11.90
2023-04-26T17:11:01.371Z,11.87
2023-04-26T17:13:29.889Z,11.91
2023-04-26T17:15:56.411Z,11.73
2023-04-26T17:18:22.832Z,11.75
2023-04-26T17:20:53.419Z,11.93
2023-04-26T17:23:20.106Z,11.95
2023-04-26T17:25:46.906Z,11.90
2023-04-26T17:28:14.245Z,11.77
2023-04-26T17:30:41.322Z,11.65
2023-04-26T17:33:07.865Z,11.74
2023-04-26T17:35:34.395Z,11.61
2023-04-26T17:38:00.858Z,11.55
2023-04-26T17:40:27.239Z,11.41
2023-04-26T17:42:53.673Z,11.33
2023-04-26T17:45:20.118Z,11.23
2023-04-26T17:47:48.582Z,11.10
2023-04-26T17:50:15.774Z,11.10
2023-04-26T17:52:42.611Z,11.10
2023-04-26T17:55:10.076Z,10.94
2023-04-26T17:57:36.895Z,10.88
2023-04-26T18:00:04.067Z,10.75
2023-04-26T18:02:30.582Z,10.65
2023-04-26T18:04:58.151Z,10.53
2023-04-26T18:10:54.050Z,10.40
2023-04-26T18:13:21.057Z,10.15
2023-04-26T18:15:47.806Z,10.05
2023-04-26T18:18:14.297Z,9.89
2023-04-26T18:20:40.748Z,9.85
2023-04-26T18:23:07.163Z,9.69
2023-04-26T18:25:33.799Z,9.61
2023-04-26T18:28:00.215Z,9.57
2023-04-26T18:30:26.946Z,9.51
2023-04-26T18:32:53.525Z,9.32
2023-04-26T18:35:20.789Z,9.37
2023-04-26T18:37:48.016Z,9.30
2023-04-26T18:40:14.807Z,9.26
2023-04-26T18:42:42.021Z,9.17
2023-04-26T18:45:09.619Z,9.08
2023-04-26T18:47:37.090Z,8.94
2023-04-26T18:50:04.271Z,8.93
2023-04-26T18:52:30.689Z,8.79
2023-04-26T18:54:57.270Z,8.84
2023-04-26T18:57:25.733Z,8.75
2023-04-26T18:59:52.221Z,8.66
2023-04-26T19:02:18.657Z,8.55
2023-04-26T19:04:46.898Z,8.44
2023-04-26T19:07:14.584Z,8.50
2023-04-26T19:09:53.045Z,8.38
2023-04-26T19:12:20.935Z,8.45
2023-04-26T19:14:47.375Z,8.36
2023-04-26T19:17:14.842Z,8.45
2023-04-26T19:19:41.823Z,8.27
2023-04-26T19:22:08.213Z,8.41
2023-04-26T19:24:34.626Z,8.11
2023-04-26T19:27:01.356Z,7.88
2023-04-26T19:29:27.773Z,7.88
2023-04-26T19:31:54.235Z,7.83
2023-04-26T19:34:21.904Z,7.61
2023-04-26T19:36:50.287Z,7.55
2023-04-26T19:39:16.879Z,7.55
2023-04-26T19:41:43.541Z,7.62
2023-04-26T19:44:09.970Z,7.18
2023-04-26T19:46:36.957Z,7.38
2023-04-26T19:49:03.614Z,7.27
2023-04-26T19:51:34.104Z,7.18
2023-04-26T19:54:00.505Z,7.15
2023-04-26T19:56:26.881Z,7.08
2023-04-26T19:58:53.307Z,6.82
2023-04-26T20:01:19.890Z,6.82
2023-04-26T20:03:46.368Z,6.76
2023-04-26T20:06:14.036Z,6.65
2023-04-26T20:08:41.169Z,6.75
2023-04-26T20:11:10.776Z,6.35
2023-04-26T20:13:37.146Z,6.63
2023-04-26T20:16:03.760Z,6.55
2023-04-26T20:18:30.165Z,6.47
2023-04-26T20:20:56.604Z,6.43
2023-04-26T20:23:23.337Z,6.10
2023-04-26T20:25:50.710Z,6.58
2023-04-26T20:28:17.217Z,6.85
2023-04-26T20:30:43.551Z,6.75
2023-04-26T20:33:10.160Z,6.40
2023-04-26T20:35:36.578Z,6.51
2023-04-26T20:38:04.979Z,6.08
2023-04-26T20:40:32.207Z,6.10
2023-04-26T20:42:58.774Z,5.86
2023-04-26T20:45:25.354Z,6.35
2023-04-26T20:47:51.777Z,6.12
2023-04-26T20:50:18.250Z,6.12
2023-04-26T20:52:47.115Z,5.75
2023-04-26T20:55:13.627Z,5.60
2023-04-26T20:57:40.062Z,5.81
2023-04-26T21:00:07.507Z,5.97
2023-04-26T21:02:34.706Z,5.83
2023-04-26T21:05:01.332Z,5.74
2023-04-26T21:07:28.087Z,5.68
2023-04-26T21:09:54.501Z,5.57
2023-04-26T21:12:21.532Z,5.29
2023-04-26T21:14:48.138Z,5.58
2023-04-26T21:17:14.909Z,5.33
2023-04-26T21:19:41.472Z,5.50
2023-04-26T21:22:09.798Z,5.45
2023-04-26T21:24:36.731Z,5.40
2023-04-26T21:27:03.363Z,4.81
2023-04-26T21:29:29.904Z,5.32
2023-04-26T21:31:56.329Z,5.61
2023-04-26T21:34:22.886Z,5.63
2023-04-26T21:36:50.582Z,5.48
2023-04-26T21:39:18.106Z,5.23
2023-04-26T21:41:44.518Z,5.12
2023-04-26T21:44:11.227Z,5.17
2023-04-26T21:46:37.749Z,5.24
2023-04-26T21:49:04.199Z,5.16
2023-04-26T21:51:31.295Z,5.10
2023-04-26T21:53:57.733Z,5.02
2023-04-26T21:56:24.192Z,4.95
2023-04-26T21:58:50.635Z,4.73
2023-04-26T22:01:17.290Z,4.61
2023-04-26T22:03:43.939Z,4.54
2023-04-26T22:06:11.024Z,4.52
2023-04-26T22:08:37.833Z,4.46
2023-04-26T22:11:04.382Z,4.35
2023-04-26T22:13:31.329Z,4.23
2023-04-26T22:15:57.780Z,4.44
2023-04-26T22:18:25.924Z,4.24
2023-04-26T22:20:53.475Z,4.45
2023-04-26T22:23:20.025Z,4.46
2023-04-26T22:25:46.424Z,4.61
2023-04-26T22:28:13.607Z,4.58
2023-04-26T22:30:40.968Z,4.53
2023-04-26T22:33:07.575Z,4.69
2023-04-26T22:35:34.929Z,4.81
2023-04-26T22:38:01.369Z,4.72
2023-04-26T22:40:33.777Z,4.67
2023-04-26T22:43:00.218Z,4.62
2023-04-26T22:45:28.675Z,4.64
2023-04-26T22:47:55.124Z,4.58
2023-04-26T22:50:21.672Z,4.65
2023-04-26T22:52:48.151Z,4.60
2023-04-26T22:55:14.552Z,4.67
2023-04-26T22:57:41.012Z,4.58
2023-04-26T23:00:10.195Z,4.55
2023-04-26T23:02:36.743Z,4.50
2023-04-26T23:05:05.198Z,4.60
2023-04-26T23:07:33.050Z,4.67
2023-04-26T23:09:59.400Z,4.78
2023-04-26T23:12:25.844Z,4.73
2023-04-26T23:14:52.197Z,4.63
2023-04-26T23:17:20.523Z,4.41
2023-04-26T23:19:48.019Z,4.29
2023-04-26T23:22:15.666Z,4.48
2023-04-26T23:24:42.022Z,4.54
2023-04-26T23:27:08.435Z,4.51
2023-04-26T23:29:34.873Z,4.31
2023-04-26T23:32:01.256Z,4.55
2023-04-26T23:34:27.689Z,4.39
2023-04-26T23:36:54.128Z,4.39
2023-04-26T23:39:20.926Z,4.18
2023-04-26T23:41:47.336Z,4.35
2023-04-26T23:44:13.769Z,4.55
2023-04-26T23:46:40.250Z,4.47
2023-04-26T23:49:06.701Z,4.46
2023-04-26T23:51:33.276Z,4.29
2023-04-26T23:53:59.664Z,4.31
2023-04-26T23:56:26.143Z,4.45
2023-04-26T23:58:52.593Z,4.58
